Weather observations for the past three days for
MANDAN
Imperial (Metric)
Date Time (cdt) Wind (mph) Vis. (mi.) Weather Sky Cond. Temperature (ºF) Relative Humidity Wind Chill (°F) Heat Index (°F) Pressure Precipitation (in)
Air Dwpt 6 hour altimeter (in) sea level (mb) 1 hr 3 hr 6 hr
Max. Min.
08 03:55 W 6 10.00 Overcast OVC100 42.8 24.8 49% 40 29.76 0.0
08 03:35 W 5 10.00 Overcast OVC110 44.6 24.8 46% 43 29.76 0.0
08 03:15 W 3 10.00 Partly Cloudy SCT110 41 26.6 57% 29.76 0.0
08 02:55 W 6 10.00 Partly Cloudy SCT100 39.2 26.6 61% 36 29.77 0.0
08 02:35 SW 7 10.00 Mostly Cloudy BKN100 42.8 28.4 57% 39 29.77 0.0
08 02:15 SW 3 10.00 Fair CLR 42.8 26.6 53% 29.77 0.0
08 01:55 Calm 10.00 Mostly Cloudy SCT095 BKN110 44.6 26.6 49% 29.78 0.0
08 01:35 SW 3 10.00 Overcast SCT075 BKN085 OVC110 44.6 28.4 53% 29.78 0.0
08 01:15 S 5 10.00 Overcast FEW075 OVC100 50 24.8 37% 49 29.78 0.0
08 00:55 S 3 10.00 Overcast FEW075 OVC100 51.8 23 32% 29.78 0.0
08 00:35 SE 6 10.00 Overcast OVC100 48.2 23 37% 46 29.79 0.0
08 00:15 E 6 10.00 Mostly Cloudy BKN090 BKN110 51.8 23 32% 29.79 0.0
07 23:55 Calm 10.00 Mostly Cloudy FEW075 BKN100 48.2 24.8 40% 29.79 0.0
07 23:35 Calm 10.00 Overcast BKN070 OVC100 50 24.8 37% 29.8 0.0
07 23:15 Calm 10.00 Overcast BKN065 OVC080 48.2 28.4 46% 29.8 0.0
07 22:55 N 6 10.00 Overcast FEW065 BKN075 OVC100 51.8 26.6 38% 29.8 0.0
07 22:35 NW 5 10.00 Overcast BKN075 OVC100 53.6 24.8 33% 29.8 0.0
07 22:15 NW 6 10.00 Overcast SCT080 OVC110 53.6 24.8 33% 29.8 0.0
07 21:55 N 5 10.00 Overcast FEW080 OVC110 53.6 24.8 33% 29.8 0.0
07 21:35 N 6 10.00 Overcast SCT080 OVC110 53.6 26.6 35% 29.79 0.0
07 21:15 N 5 10.00 Mostly Cloudy BKN110 53.6 24.8 33% 29.79 0.0
07 20:55 N 6 10.00 Fair CLR 53.6 26.6 35% 29.78 0.0
07 20:35 N 6 10.00 A Few Clouds FEW120 53.6 26.6 35% 29.78 0.0
07 20:15 N 7 10.00 Fair CLR 55.4 26.6 33% 29.77 0.0
07 19:55 N 7 10.00 Fair CLR 55.4 30.2 38% 29.77 0.0
07 19:35 N 7 10.00 Fair CLR 57.2 28.4 33% 29.77 0.0
07 19:15 N 13 10.00 Fair CLR 60.8 26.6 27% 29.77 0.0
07 18:55 NW 9 10.00 Fair CLR 60.8 24.8 25% 29.77 0.0
07 18:35 NW 9 10.00 Fair CLR 62.6 26.6 25% 29.77 0.0
07 18:15 NW 13 10.00 Fair CLR 62.6 26.6 25% 29.77 0.0
07 17:55 NW 13 G 18 10.00 Fair CLR 62.6 24.8 24% 29.77 0.0
07 17:35 W 8 10.00 Fair CLR 62.6 26.6 25% 29.78 0.0
07 17:15 NW 13 G 20 10.00 Fair CLR 62.6 26.6 25% 29.78 0.0
07 16:55 N 9 G 20 10.00 Fair CLR 62.6 26.6 25% 29.79 0.0
07 16:35 W 12 G 20 10.00 Fair CLR 60.8 26.6 27% 29.79 0.0
07 16:15 NW 13 G 20 10.00 Fair CLR 60.8 24.8 25% 29.8 0.0
07 15:35 NW 12 G 22 10.00 Fair CLR 60.8 24.8 25% 29.81 0.0
07 15:15 N 12 G 17 10.00 Fair CLR 60.8 23 23% 29.82 0.0
07 14:55 W 7 G 22 10.00 Fair CLR 60.8 23 23% 29.82 0.0
07 14:35 Vrbl 7 G 17 10.00 Fair CLR 59 23 25% 29.82 0.0
07 14:15 NW 8 G 18 10.00 Fair CLR 59 24.8 27% 29.82 0.0
07 13:55 NW 8 G 17 10.00 Fair CLR 59 24.8 27% 29.82 0.0
07 13:35 N 5 G 18 10.00 Fair CLR 57.2 23 27% 29.83 0.0
07 13:15 NW 7 G 17 10.00 Fair CLR 57.2 24.8 29% 29.84 0.0
07 12:55 W 9 G 18 10.00 Fair CLR 57.2 26.6 31% 29.85 0.0
07 12:35 NW 8 G 20 10.00 Fair CLR 55.4 24.8 31% 29.85 0.0
07 12:15 Calm 10.00 Fair CLR 53.6 24.8 33% 29.86 0.0
07 11:55 Vrbl 3 G 15 10.00 Fair CLR 53.6 23 30% 29.86 0.0
07 11:35 NW 8 10.00 Fair CLR 51.8 24.8 35% 29.87 0.0
07 11:15 Vrbl 6 10.00 Fair CLR 50 26.6 40% 48 29.87 0.0
07 10:55 W 8 10.00 Fair CLR 50 28.4 43% 47 29.88 0.0
07 10:35 NW 8 10.00 Fair CLR 48.2 26.6 43% 45 29.88 0.0
07 10:15 Calm 10.00 Fair CLR 46.4 28.4 50% 29.89 0.0
07 09:55 NW 3 10.00 Fair CLR 46.4 28.4 50% 29.89 0.0
07 09:35 Vrbl 6 10.00 Fair CLR 42.8 28.4 57% 40 29.89 0.0
07 09:15 Calm 10.00 Fair CLR 41 28.4 61% 29.88 0.0
07 08:55 Calm 9.00 Fair CLR 39.2 28.4 65% 29.88 0.0
07 08:35 Calm 10.00 Fair CLR 37.4 26.6 65% 29.88 0.0
07 08:15 Calm 10.00 Fair CLR 35.6 26.6 70% 29.88 0.0
07 07:55 Calm 3.00 Fair with Haze CLR 32 26.6 80% 29.87 0.0
07 07:35 Calm 7.00 Fair CLR 28.4 26.6 93% 29.87 0.0
07 07:15 Calm 10.00 Fair CLR 28.4 23 80% 29.86 0.0
07 06:55 Calm 10.00 Fair CLR 26.6 21.2 80% 29.86 0.0
07 06:35 Calm 10.00 Fair CLR 28.4 21.2 74% 29.86 0.0
07 06:15 Calm 10.00 Fair CLR 30.2 23 75% 29.86 0.0
07 05:55 Calm 10.00 Fair CLR 30.2 23 75% 29.86 0.0
07 05:35 Calm 10.00 Fair CLR 30.2 23 75% 29.86 0.0
07 05:15 Calm 10.00 Fair CLR 28.4 23 80% 29.86 0.0
07 04:55 S 3 10.00 Fair CLR 28.4 23 80% 29.86 0.0
07 04:35 S 6 10.00 Fair CLR 33.8 23 65% 29 29.86 0.0
07 04:15 S 5 9.00 Fair CLR 33.8 23 65% 30 29.86 0.0
07 03:55 S 5 10.00 Fair CLR 33.8 23 65% 30 29.86 0.0
07 03:35 S 6 10.00 Fair CLR 33.8 23 65% 29 29.86 0.0
07 03:15 S 6 10.00 Fair CLR 33.8 23 65% 29 29.86 0.0
07 02:55 S 6 10.00 Fair CLR 33.8 21.2 60% 29 29.86 0.0
07 02:35 S 7 10.00 Fair CLR 33.8 21.2 60% 28 29.86 0.0
07 02:15 S 7 10.00 Fair CLR 33.8 21.2 60% 28 29.86 0.0
07 01:55 S 7 10.00 Fair CLR 33.8 21.2 60% 28 29.87 0.0
07 01:35 SW 6 10.00 Fair CLR 33.8 21.2 60% 29 29.87 0.0
07 01:15 SW 3 10.00 Fair CLR 35.6 21.2 56% 29.87 0.0
07 00:55 S 6 10.00 Fair CLR 32 21.2 64% 27 29.87 0.0
07 00:35 S 5 10.00 Fair CLR 37.4 21.2 52% 34 29.87 0.0
07 00:15 SE 6 10.00 Fair CLR 37.4 21.2 52% 33 29.87 0.0
06 23:55 SE 7 10.00 Fair CLR 37.4 21.2 52% 33 29.88 0.0
06 23:35 E 8 10.00 Fair CLR 39.2 21.2 48% 34 29.88 0.0
06 23:15 SE 6 10.00 Fair CLR 41 21.2 45% 38 29.88 0.0
06 22:55 SE 6 10.00 Fair CLR 41 21.2 45% 38 29.89 0.0
06 22:35 SE 5 10.00 Fair CLR 41 23 49% 38 29.89 0.0
06 22:15 E 6 10.00 A Few Clouds FEW090 42.8 23 46% 40 29.89 0.0
06 21:55 NE 3 10.00 Mostly Cloudy BKN090 42.8 21.2 42% 29.89 0.0
06 21:35 NE 6 10.00 Fair CLR 42.8 23 46% 40 29.89 0.0
06 21:15 NE 7 10.00 Fair CLR 41 23 49% 37 29.89 0.0
06 20:55 N 6 10.00 Fair CLR 42.8 23 46% 40 29.89 0.0
06 20:35 N 6 10.00 Fair CLR 44.6 24.8 46% 42 29.89 0.0
06 20:15 N 9 10.00 Fair CLR 48.2 24.8 40% 45 29.89 0.0
06 19:55 N 9 10.00 Fair CLR 48.2 24.8 40% 45 29.9 0.0
06 19:35 NW 6 G 13 10.00 Fair CLR 50 24.8 37% 48 29.9 0.0
06 19:15 NW 10 10.00 A Few Clouds FEW075 50 24.8 37% 46 29.9 0.0
06 18:55 N 13 10.00 Partly Cloudy SCT080 SCT090 50 24.8 37% 46 29.91 0.0
06 18:35 N 8 10.00 Overcast SCT075 OVC085 50 24.8 37% 47 29.91 0.0
06 18:15 NW 13 G 20 10.00 Overcast SCT070 OVC080 50 24.8 37% 46 29.92 0.0
06 17:55 N 13 G 21 10.00 Overcast FEW060 OVC075 51.8 24.8 35% 29.92 0.0
06 17:35 NW 12 G 20 10.00 Overcast OVC070 50 24.8 37% 46 29.92 0.0
06 17:15 NW 15 10.00 Overcast BKN070 OVC080 50 24.8 37% 45 29.93 0.0
06 16:55 NW 12 G 21 10.00 Mostly Cloudy BKN065 BKN080 50 24.8 37% 46 29.93 0.0
06 16:35 NW 16 10.00 Overcast OVC070 50 24.8 37% 45 29.94 0.0
06 16:15 N 14 G 24 10.00 Mostly Cloudy BKN065 BKN075 50 24.8 37% 45 29.95 0.0
06 15:55 NW 16 G 23 10.00 Mostly Cloudy BKN070 51.8 24.8 35% 29.96 0.0
06 15:35 W 13 G 30 10.00 Overcast BKN065 OVC075 50 24.8 37% 46 29.96 0.0
06 15:15 NW 8 G 17 10.00 Overcast BKN060 OVC070 46.4 24.8 43% 43 29.97 0.0
06 14:55 NW 14 10.00 Overcast OVC065 48.2 26.6 43% 43 29.98 0.0
06 14:35 NW 12 G 21 10.00 Mostly Cloudy BKN060 BKN075 48.2 24.8 40% 44 29.98 0.0
06 14:15 NW 10 10.00 Mostly Cloudy BKN060 48.2 24.8 40% 44 29.99 0.0
06 13:55 NW 9 10.00 Partly Cloudy SCT055 SCT065 46.4 26.6 46% 42 30 0.0
06 13:35 NW 9 G 17 10.00 Mostly Cloudy SCT055 BKN065 46.4 24.8 43% 42 30 0.0
06 13:15 NW 9 10.00 Mostly Cloudy BKN055 BKN065 44.6 24.8 46% 40 30.01 0.0
06 12:55 NW 12 G 18 10.00 Overcast BKN050 OVC060 44.6 24.8 46% 39 30.02 0.0
06 12:35 NW 9 G 17 10.00 Mostly Cloudy BKN050 BKN065 44.6 24.8 46% 40 30.03 0.0
06 12:15 N 8 G 18 10.00 Overcast BKN050 OVC055 42.8 24.8 49% 39 30.03 0.0
06 11:55 N 13 10.00 Overcast BKN050 OVC060 42.8 24.8 49% 37 30.04 0.0
06 11:35 NW 14 10.00 Mostly Cloudy BKN050 BKN060 42.8 23 46% 36 30.05 0.0
06 11:15 NW 12 10.00 Overcast OVC050 42.8 23 46% 37 30.05 0.0
06 10:55 NW 8 10.00 Mostly Cloudy BKN050 BKN055 41 24.8 53% 36 30.05 0.0
06 10:35 NW 9 G 16 10.00 A Few Clouds FEW050 41 23 49% 36 30.06 0.0
06 10:15 Calm 10.00 A Few Clouds FEW055 39.2 23 52% 30.06 0.0
06 09:55 Calm 10.00 Partly Cloudy SCT055 39.2 23 52% 30.06 0.0
06 09:35 N 7 10.00 Fair CLR 39.2 23 52% 35 30.07 0.0
06 09:15 Calm 10.00 Fair CLR 37.4 23 56% 30.07 0.0
06 08:55 Calm 10.00 A Few Clouds FEW050 35.6 23 60% 30.06 0.0
06 08:35 Calm 10.00 Mostly Cloudy BKN050 33.8 24.8 70% 30.07 0.0
06 08:15 Calm 10.00 Overcast OVC050 30.2 23 75% 30.06 0.0
06 07:55 NW 3 10.00 Overcast OVC050 28.4 23 80% 30.07 0.0
06 07:35 NW 6 10.00 Overcast OVC050 28.4 23 80% 23 30.06 0.0
06 07:15 Calm 10.00 Overcast OVC050 28.4 23 80% 30.05 0.0
06 06:55 Calm 9.00 Overcast OVC055 28.4 23 80% 30.04 0.0
06 06:35 Calm 6.00 Fog/Mist OVC050 26.6 23 86% 30.04 0.0
06 06:15 Calm 10.00 Overcast OVC055 26.6 23 86% 30.04 0.0
06 05:55 Calm 9.00 Overcast OVC055 26.6 23 86% 30.04 0.0
06 05:35 NW 3 10.00 Overcast OVC055 26.6 23 86% 30.04 0.0
06 05:15 N 6 10.00 Mostly Cloudy BKN055 24.8 21.2 86% 19 30.04 0.0
06 04:55 N 6 10.00 A Few Clouds FEW055 23 19.4 86% 17 30.04 0.0
06 04:35 NW 7 10.00 Fair CLR 24.8 19.4 80% 18 30.04 0.0
06 04:15 NW 5 10.00 Fair CLR 24.8 19.4 80% 20 30.03 0.0
06 03:55 Calm 10.00 Partly Cloudy SCT060 26.6 19.4 74% 30.03 0.0
06 03:35 NW 3 10.00 Overcast OVC060 24.8 19.4 80% 30.03 0.0
06 03:15 W 3 10.00 Overcast OVC060 26.6 21.2 80% 30.03 0.0
06 02:55 W 3 10.00 Overcast OVC060 28.4 23 80% 30.03 0.0
06 02:35 Calm 10.00 Overcast OVC060 26.6 21.2 80% 30.03 0.0
06 02:15 Calm 10.00 Overcast OVC060 28.4 23 80% 30.04 0.0
06 01:55 Calm 10.00 Overcast OVC060 30.2 21.2 69% 30.03 0.0
06 00:55 N 3 10.00 Overcast OVC065 30.2 19.4 64% 30.03 0.0
06 00:35 N 3 10.00 Overcast SCT055 OVC070 30.2 19.4 64% 30.03 0.0
06 00:15 N 6 10.00 Overcast BKN055 OVC070 30.2 19.4 64% 25 30.02 0.0
05 23:55 N 5 10.00 Mostly Cloudy BKN070 33.8 19.4 56% 30 30.02 0.0
05 23:35 N 3 10.00 A Few Clouds FEW070 33.8 19.4 56% 30.02 0.0
05 23:15 N 3 10.00 A Few Clouds FEW060 33.8 19.4 56% 30.02 0.0
05 22:55 NE 3 10.00 Partly Cloudy FEW060 SCT070 33.8 19.4 56% 30.02 0.0
05 22:35 NE 6 10.00 Overcast SCT060 OVC070 33.8 19.4 56% 29 30.02 0.0
05 22:15 N 6 10.00 Overcast FEW050 SCT060 OVC075 33.8 19.4 56% 29 30.01 0.0
05 21:55 N 7 10.00 Overcast FEW049 SCT055 OVC075 33.8 21.2 60% 28 30.01 0.0
05 21:35 N 6 10.00 Overcast BKN050 BKN065 OVC075 35.6 21.2 56% 31 30 0.0
05 21:15 N 7 10.00 Overcast BKN060 OVC075 35.6 21.2 56% 31 29.99 0.0
05 20:55 N 8 10.00 Overcast OVC075 37.4 23 56% 32 29.99 0.0
05 20:35 NW 6 10.00 Overcast OVC070 39.2 23 52% 36 29.98 0.0
05 20:15 N 9 10.00 Overcast OVC070 39.2 21.2 48% 34 29.98 0.0
05 19:55 N 9 G 16 10.00 Overcast OVC070 39.2 21.2 48% 34 29.98 0.0
05 19:35 N 12 G 17 10.00 Overcast OVC070 41 21.2 45% 35 29.98 0.0
05 19:15 N 13 G 20 10.00 Overcast OVC065 41 23 49% 34 29.98 0.0
05 18:55 N 15 10.00 Overcast BKN060 OVC070 41 23 49% 34 29.97 0.0
05 18:35 N 16 10.00 Overcast OVC060 41 23 49% 33 29.97 0.0
05 18:15 N 15 G 21 10.00 Overcast BKN060 OVC070 41 23 49% 34 29.97 0.0
05 17:55 NW 14 10.00 Overcast SCT055 OVC070 42.8 23 46% 36 29.96 0.0
05 17:35 NW 18 10.00 Overcast FEW055 OVC065 41 23 49% 33 29.96 0.0
05 17:15 N 16 G 24 10.00 Overcast OVC060 42.8 23 46% 36 29.96 0.0
05 16:55 NW 16 10.00 Overcast OVC060 42.8 23 46% 36 29.96 0.0
05 16:35 NW 16 10.00 Overcast OVC055 42.8 23 46% 36 29.96 0.0
05 16:15 N 18 G 25 10.00 Overcast OVC060 42.8 23 46% 35 29.97 0.0
05 15:55 N 18 G 26 10.00 Overcast OVC060 42.8 23 46% 35 29.96 0.0
05 15:35 N 21 10.00 Overcast and Breezy OVC060 42.8 23 46% 35 29.96 0.0
05 15:15 N 18 G 25 10.00 Overcast OVC055 42.8 23 46% 35 29.96 0.0
05 14:55 NW 15 G 25 10.00 Overcast OVC055 42.8 21.2 42% 36 29.96 0.0
05 14:35 NW 18 G 30 10.00 Overcast OVC060 42.8 21.2 42% 35 29.96 0.0
05 14:15 NW 17 G 26 10.00 Overcast OVC060 42.8 21.2 42% 35 29.95 0.0
05 13:55 NW 17 G 28 10.00 Overcast OVC060 42.8 21.2 42% 35 29.95 0.0
05 13:35 NW 20 G 28 10.00 Overcast BKN055 OVC065 42.8 23 46% 35 29.95 0.0
05 13:15 NW 17 G 28 10.00 Overcast BKN055 OVC065 41 21.2 45% 33 29.95 0.0
05 12:55 N 21 G 28 10.00 Overcast and Breezy SCT050 OVC065 42.8 21.2 42% 35 29.95 0.0
05 12:35 N 21 10.00 Overcast and Breezy OVC060 41 23 49% 32 29.95 0.0
05 12:15 NW 18 G 25 10.00 Overcast BKN050 OVC060 41 21.2 45% 33 29.95 0.0
05 11:55 NW 17 G 24 10.00 Overcast BKN049 OVC060 41 21.2 45% 33 29.95 0.0
05 11:35 NW 20 10.00 Overcast BKN048 OVC060 39.2 23 52% 30 29.95 0.0
05 11:15 NW 16 G 23 10.00 Overcast SCT047 OVC060 39.2 24.8 56% 31 29.95 0.0
05 10:55 NW 18 G 28 9.00 Overcast SCT047 BKN055 OVC065 39.2 23 52% 31 29.94 0.0
05 10:35 NW 16 G 23 10.00 Mostly Cloudy FEW041 SCT050 BKN060 39.2 28.4 65% 31 29.94 0.0
05 10:15 W 16 10.00 Overcast FEW027 BKN040 OVC070 37.4 30.2 75% 29 29.95 0.0
05 09:55 NW 16 G 23 10.00 Overcast BKN038 OVC049 37.4 26.6 65% 29 29.95 0.0
05 09:35 NW 10 G 23 8.00 Overcast BKN037 BKN050 OVC070 37.4 26.6 65% 31 29.94 0.0
05 09:15 NW 20 10.00 Overcast SCT038 OVC070 37.4 24.8 60% 28 29.94 0.0
05 08:55 NW 17 10.00 Overcast OVC070 37.4 26.6 65% 29 29.93 0.0
05 08:35 NW 14 G 21 10.00 Overcast OVC065 37.4 26.6 65% 30 29.93 0.0
05 08:15 NW 15 G 21 10.00 Overcast OVC065 37.4 26.6 65% 29 29.92 0.0
05 07:55 NW 13 10.00 Overcast OVC070 35.6 28.4 75% 28 29.91 0.0
05 07:35 NW 14 10.00 Overcast OVC070 35.6 26.6 70% 27 29.91 0.0
05 07:15 W 14 10.00 Overcast OVC070 33.8 26.6 75% 25 29.9 0.0
05 06:55 W 12 10.00 Overcast FEW050 OVC070 33.8 26.6 75% 26 29.9 0.0
05 06:35 W 12 10.00 Overcast OVC070 33.8 26.6 75% 26 29.9 0.0
05 06:15 W 13 10.00 Overcast OVC070 33.8 26.6 75% 25 29.89 0.0
05 05:55 W 13 10.00 Overcast OVC070 33.8 26.6 75% 25 29.89 0.0
05 05:35 W 12 10.00 Overcast OVC070 33.8 26.6 75% 26 29.89 0.0
05 05:15 NW 12 10.00 Overcast OVC070 33.8 26.6 75% 26 29.89 0.0
05 04:55 W 13 10.00 Overcast OVC070 33.8 26.6 75% 25 29.89 0.0
05 04:35 W 10 10.00 Overcast OVC070 32 26.6 80% 24 29.89 0.0
05 04:15 W 10 10.00 Overcast OVC070 32 24.8 75% 24 29.89 0.0
Date Time (cdt) Wind (mph) Vis. (mi.) Weather Sky Cond. Air Dwpt Max. Min. Relative Humidity Wind Chill (°F) Heat Index (°F) altimeter (in) sea level (mb) 1 hr 3 hr 6 hr
6 hour
Temperature (ºF) Pressure Precipitation (in)